Time;durP1;ratioP1;P1;durP2;ratioP2;P2;SDS_P1;SDS_P2;PMS_P1;PMS_P2;Temp;Humidity;BMP_temperature;BMP_pressure;BME280_temperature;BME280_humidity;BME280_pressure;Samples;Min_cycle;Max_cycle;Signal;HPM_P1;HPM_P2
2021/08/01 00:01:42;;;;;;;;;;;;;;;;;;5017272;28;1395;-52
2021/08/01 00:04:07;;;;;;;;;;;;;;;;;;5018958;28;1915;-52
2021/08/01 00:06:32;;;;;;;;;;;;;;;;;;5017684;28;1622;-52
2021/08/01 00:08:58;;;;;;;;;;;;;;;;;;5018956;28;1276;-50
2021/08/01 00:11:23;;;;;;;;;;;;;;;;;;5013987;28;1614;-51
2021/08/01 00:13:48;;;;;;;;;;;;;;;;;;5009435;28;1539;-49
2021/08/01 00:16:13;;;;;;;;;;;;;;;;;;5017147;28;1107;-51
2021/08/01 00:18:39;;;;;;;;;;;;;;;;;;5020755;28;1161;-51
2021/08/01 00:21:04;;;;;;;;;;;;;;;;;;5018413;28;1343;-52
2021/08/01 00:23:29;;;;;;;;;;;;;;;;;;5013499;28;1910;-51
2021/08/01 00:25:55;;;;;;;;;;;;;;;;;;5017141;28;1678;-51
2021/08/01 00:28:20;;;;;;;;;;;;;;;;;;5018885;28;1181;-51
2021/08/01 00:30:45;;;;;;;;;;;;;;;;;;5020503;28;1181;-51
2021/08/01 00:33:10;;;;;;;;;;;;;;;;;;5016906;28;1434;-52
2021/08/01 00:35:36;;;;;;;;;;;;;;;;;;5014102;28;1607;-52
2021/08/01 00:38:01;;;;;;;;;;;;;;;;;;5007033;28;1551;-51
2021/08/01 00:40:26;;;;;;;;;;;;;;;;;;5013629;28;1559;-51
2021/08/01 00:42:51;;;;;;;;;;;;;;;;;;5016830;28;1039;-52
2021/08/01 00:45:17;;;;;;;;;;;;;;;;;;5017705;28;1894;-51
2021/08/01 00:47:45;;;;;;;;;;;;;;;;;;5013842;28;1645;-51
2021/08/01 00:50:10;;;;;;;;;;;;;;;;;;5020387;28;1207;-50
2021/08/01 00:52:36;;;;;;;;;;;;;;;;;;5017367;28;937;-52
2021/08/01 00:55:05;;;;;;;;;;;;;;;;;;5036364;23;2061;-49
2021/08/01 00:57:30;;;;;;;;;;;;;;;;;;5019682;28;1670;-48
2021/08/01 00:59:55;;;;;;;;;;;;;;;;;;5017607;28;1571;-49
2021/08/01 01:02:20;;;;;;;;;;;;;;;;;;5018127;28;1430;-50
2021/08/01 01:04:50;;;;;;;;;;;;;;;;;;5018269;28;1914;-50
2021/08/01 01:07:25;;;;;;;;;;;;;;;;;;5009108;28;1569;-51
2021/08/01 01:09:56;;;;;;;;;;;;;;;;;;5011578;28;1375;-51
2021/08/01 01:12:22;;;;;;;;;;;;;;;;;;5022985;28;1718;-52
2021/08/01 01:14:50;;;;;;;;;;;;;;;;;;5021175;28;1521;-50
2021/08/01 01:17:16;;;;;;;;;;;;;;;;;;5011736;28;1189;-50
2021/08/01 01:19:44;;;;;;;;;;;;;;;;;;5010482;28;1603;-50
2021/08/01 01:22:14;;;;;;;;;;;;;;;;;;5023171;28;1126;-51
2021/08/01 01:24:39;;;;;;;;;;;;;;;;;;5011231;28;1964;-49
2021/08/01 01:27:12;;;;;;;;;;;;;;;;;;5012364;28;1631;-49
2021/08/01 01:29:40;;;;;;;;;;;;;;;;;;5010564;28;1295;-49
2021/08/01 01:32:09;;;;;;;;;;;;;;;;;;5010720;28;1411;-50
2021/08/01 01:34:37;;;;;;;;;;;;;;;;;;5009713;28;1586;-49
2021/08/01 01:37:06;;;;;;;;;;;;;;;;;;5025020;28;1267;-50
2021/08/01 01:39:31;;;;;;;;;;;;;;;;;;5009906;28;1517;-51
2021/08/01 01:41:56;;;;;;;;;;;;;;;;;;5021984;28;1561;-49
2021/08/01 01:44:21;;;;;;;;;;;;;;;;;;5009296;28;1978;-52
2021/08/01 01:46:46;;;;;;;;;;;;;;;;;;5011131;28;1141;-52
2021/08/01 01:49:12;;;;;;;;;;;;;;;;;;5009202;28;1724;-51
2021/08/01 01:51:37;;;;;;;;;;;;;;;;;;5012194;28;1283;-50
2021/08/01 01:54:02;;;;;;;;;;;;;;;;;;5010253;28;1391;-50
2021/08/01 01:56:30;;;;;;;;;;;;;;;;;;5009772;28;1574;-50
2021/08/01 01:58:56;;;;;;;;;;;;;;;;;;5008963;28;1691;-51
2021/08/01 02:01:21;;;;;;;;;;;;;;;;;;5023906;28;1233;-50
2021/08/01 02:03:47;;;;;;;;;;;;;;;;;;5018016;28;1977;-51
2021/08/01 02:06:15;;;;;;;;;;;;;;;;;;5024940;28;1651;-51
2021/08/01 02:08:43;;;;;;;;;;;;;;;;;;5024699;28;1459;-49
2021/08/01 02:11:08;;;;;;;;;;;;;;;;;;5023587;28;1703;-51
2021/08/01 02:13:35;;;;;;;;;;;;;;;;;;5009266;28;1292;-52
2021/08/01 02:16:01;;;;;;;;;;;;;;;;;;5022822;28;1434;-49
2021/08/01 02:18:26;;;;;;;;;;;;;;;;;;5021555;28;1185;-50
2021/08/01 02:20:51;;;;;;;;;;;;;;;;;;5019611;28;1546;-50
2021/08/01 02:23:17;;;;;;;;;;;;;;;;;;5022646;28;1977;-49
2021/08/01 02:25:42;;;;;;;;;;;;;;;;;;5020495;28;1544;-52
2021/08/01 02:28:08;;;;;;;;;;;;;;;;;;5011416;28;1177;-51
2021/08/01 02:30:33;;;;;;;;;;;;;;;;;;5023434;28;1272;-50
2021/08/01 02:32:58;;;;;;;;;;;;;;;;;;5009268;28;1616;-49
2021/08/01 02:35:23;;;;;;;;;;;;;;;;;;5008996;28;1526;-52
2021/08/01 02:37:48;;;;;;;;;;;;;;;;;;5022029;28;1486;-50
2021/08/01 02:40:14;;;;;;;;;;;;;;;;;;5007262;28;1507;-52
2021/08/01 02:42:40;;;;;;;;;;;;;;;;;;5021186;28;1597;-52
2021/08/01 02:45:05;;;;;;;;;;;;;;;;;;5012036;28;1906;-52
2021/08/01 02:47:31;;;;;;;;;;;;;;;;;;5013911;28;1154;-52
2021/08/01 02:49:56;;;;;;;;;;;;;;;;;;5014205;28;1427;-51
2021/08/01 02:52:24;;;;;;;;;;;;;;;;;;5013970;28;1574;-51
2021/08/01 02:54:49;;;;;;;;;;;;;;;;;;5013603;28;1394;-51
2021/08/01 02:57:14;;;;;;;;;;;;;;;;;;5013451;28;1641;-51
2021/08/01 02:59:40;;;;;;;;;;;;;;;;;;5028693;28;1233;-50
2021/08/01 03:02:06;;;;;;;;;;;;;;;;;;5010502;28;1292;-51
2021/08/01 03:04:31;;;;;;;;;;;;;;;;;;5012963;28;1967;-51
2021/08/01 03:06:57;;;;;;;;;;;;;;;;;;5013885;28;1273;-51
2021/08/01 03:09:22;;;;;;;;;;;;;;;;;;5024856;28;1161;-49
2021/08/01 03:11:48;;;;;;;;;;;;;;;;;;5011377;28;1704;-52
2021/08/01 03:14:13;;;;;;;;;;;;;;;;;;5012799;28;1359;-51
2021/08/01 03:16:38;;;;;;;;;;;;;;;;;;5014499;28;1161;-50
2021/08/01 03:19:03;;;;;;;;;;;;;;;;;;5023442;28;1609;-51
2021/08/01 03:21:28;;;;;;;;;;;;;;;;;;5015305;28;1161;-51
2021/08/01 03:23:54;;;;;;;;;;;;;;;;;;5026005;28;1961;-51
2021/08/01 03:26:19;;;;;;;;;;;;;;;;;;5025650;28;1533;-52
2021/08/01 03:28:44;;;;;;;;;;;;;;;;;;5024529;28;1803;-52
2021/08/01 03:31:09;;;;;;;;;;;;;;;;;;5025596;28;1177;-52
2021/08/01 03:33:34;;;;;;;;;;;;;;;;;;5022714;28;1568;-50
2021/08/01 03:35:59;;;;;;;;;;;;;;;;;;5027257;28;1205;-49
2021/08/01 03:38:25;;;;;;;;;;;;;;;;;;5022803;28;1533;-50
2021/08/01 03:40:50;;;;;;;;;;;;;;;;;;5027422;28;1713;-49
2021/08/01 03:43:15;;;;;;;;;;;;;;;;;;5024722;28;1910;-52
2021/08/01 03:45:41;;;;;;;;;;;;;;;;;;5023900;28;1406;-50
2021/08/01 03:48:06;;;;;;;;;;;;;;;;;;5024404;28;1193;-50
2021/08/01 03:50:31;;;;;;;;;;;;;;;;;;5024088;28;1589;-52
2021/08/01 03:52:56;;;;;;;;;;;;;;;;;;5026632;28;1129;-52
2021/08/01 03:55:21;;;;;;;;;;;;;;;;;;5020458;28;1522;-50
2021/08/01 03:57:46;;;;;;;;;;;;;;;;;;5025025;28;1216;-51
2021/08/01 04:00:12;;;;;;;;;;;;;;;;;;5025179;28;1770;-51
2021/08/01 04:02:37;;;;;;;;;;;;;;;;;;5023528;28;1169;-49
2021/08/01 04:05:03;;;;;;;;;;;;;;;;;;5024773;28;1915;-52
2021/08/01 04:07:28;;;;;;;;;;;;;;;;;;5022926;28;1177;-50
2021/08/01 04:09:54;;;;;;;;;;;;;;;;;;5023427;28;1607;-50
2021/08/01 04:12:20;;;;;;;;;;;;;;;;;;5023115;28;1660;-50
2021/08/01 04:14:46;;;;;;;;;;;;;;;;;;5022526;28;1461;-50
2021/08/01 04:17:11;;;;;;;;;;;;;;;;;;5024945;28;1121;-49
2021/08/01 04:19:36;;;;;;;;;;;;;;;;;;5023898;28;1608;-49
2021/08/01 04:22:02;;;;;;;;;;;;;;;;;;5026302;28;1624;-51
2021/08/01 04:24:27;;;;;;;;;;;;;;;;;;5021426;28;1906;-50
2021/08/01 04:26:52;;;;;;;;;;;;;;;;;;5026183;28;1605;-52
2021/08/01 04:29:17;;;;;;;;;;;;;;;;;;5022547;28;1327;-51
2021/08/01 04:31:42;;;;;;;;;;;;;;;;;;5023522;28;1110;-49
2021/08/01 04:34:11;;;;;;;;;;;;;;;;;;5021599;28;1469;-52
2021/08/01 04:36:36;;;;;;;;;;;;;;;;;;5025018;28;1811;-51
2021/08/01 04:39:01;;;;;;;;;;;;;;;;;;5020800;28;1553;-52
2021/08/01 04:41:26;;;;;;;;;;;;;;;;;;5026190;28;1642;-49
2021/08/01 04:43:51;;;;;;;;;;;;;;;;;;5022377;28;2043;-51
2021/08/01 04:46:16;;;;;;;;;;;;;;;;;;5025597;28;1173;-52
2021/08/01 04:48:42;;;;;;;;;;;;;;;;;;5021862;28;1474;-49
2021/08/01 04:51:07;;;;;;;;;;;;;;;;;;5025130;28;1901;-51
2021/08/01 04:53:33;;;;;;;;;;;;;;;;;;5020479;28;1428;-50
2021/08/01 04:55:58;;;;;;;;;;;;;;;;;;5019692;28;1656;-49
2021/08/01 04:58:23;;;;;;;;;;;;;;;;;;5024218;28;1145;-51
2021/08/01 05:00:49;;;;;;;;;;;;;;;;;;5020355;28;1359;-51
2021/08/01 05:03:14;;;;;;;;;;;;;;;;;;5022327;28;1949;-50
2021/08/01 05:05:39;;;;;;;;;;;;;;;;;;5024102;28;2088;-52
2021/08/01 05:08:04;;;;;;;;;;;;;;;;;;5021876;28;1299;-52
2021/08/01 05:10:30;;;;;;;;;;;;;;;;;;5024471;28;1589;-52
2021/08/01 05:12:55;;;;;;;;;;;;;;;;;;5021914;28;1073;-50
2021/08/01 05:15:20;;;;;;;;;;;;;;;;;;5023030;28;1493;-52
2021/08/01 05:17:45;;;;;;;;;;;;;;;;;;5024154;28;1192;-50
2021/08/01 05:20:11;;;;;;;;;;;;;;;;;;5022726;28;1605;-49
2021/08/01 05:22:36;;;;;;;;;;;;;;;;;;5023577;28;1165;-52
2021/08/01 05:25:01;;;;;;;;;;;;;;;;;;5021629;28;2016;-49
2021/08/01 05:27:26;;;;;;;;;;;;;;;;;;5023131;28;1572;-49
2021/08/01 05:29:51;;;;;;;;;;;;;;;;;;5024376;28;1299;-50
2021/08/01 05:32:16;;;;;;;;;;;;;;;;;;5020788;28;1192;-50
2021/08/01 05:34:42;;;;;;;;;;;;;;;;;;5022153;28;1613;-50
2021/08/01 05:37:07;;;;;;;;;;;;;;;;;;5024657;28;1495;-51
2021/08/01 05:39:32;;;;;;;;;;;;;;;;;;5022846;28;1662;-50
2021/08/01 05:41:58;;;;;;;;;;;;;;;;;;5020131;28;1661;-49
2021/08/01 05:44:23;;;;;;;;;;;;;;;;;;5018805;28;1902;-49
2021/08/01 05:46:48;;;;;;;;;;;;;;;;;;5025927;28;1010;-49
2021/08/01 05:49:13;;;;;;;;;;;;;;;;;;5020639;28;1637;-52
2021/08/01 05:51:41;;;;;;;;;;;;;;;;;;5021771;28;1196;-52
2021/08/01 05:54:07;;;;;;;;;;;;;;;;;;5021239;28;1509;-51
2021/08/01 05:56:32;;;;;;;;;;;;;;;;;;5022969;28;1614;-51
2021/08/01 05:58:57;;;;;;;;;;;;;;;;;;5025004;28;1586;-49
2021/08/01 06:01:24;;;;;;;;;;;;;;;;;;5020683;28;1455;-51
2021/08/01 06:03:49;;;;;;;;;;;;;;;;;;5022038;28;1918;-52
2021/08/01 06:06:15;;;;;;;;;;;;;;;;;;5020657;28;1345;-51
2021/08/01 06:08:41;;;;;;;;;;;;;;;;;;5024081;28;1185;-51
2021/08/01 06:11:06;;;;;;;;;;;;;;;;;;5020507;28;1624;-50
2021/08/01 06:13:31;;;;;;;;;;;;;;;;;;5024719;28;1540;-49
2021/08/01 06:15:56;;;;;;;;;;;;;;;;;;5024090;28;1568;-49
2021/08/01 06:18:22;;;;;;;;;;;;;;;;;;5021240;28;1125;-50
2021/08/01 06:20:47;;;;;;;;;;;;;;;;;;5024700;28;1557;-50
2021/08/01 06:23:12;;;;;;;;;;;;;;;;;;5021647;28;2015;-49
2021/08/01 06:25:38;;;;;;;;;;;;;;;;;;5018497;28;1563;-50
2021/08/01 06:28:04;;;;;;;;;;;;;;;;;;5026210;28;1161;-52
2021/08/01 06:30:29;;;;;;;;;;;;;;;;;;5017638;28;1576;-50
2021/08/01 06:32:54;;;;;;;;;;;;;;;;;;5024420;28;1098;-50
2021/08/01 06:35:19;;;;;;;;;;;;;;;;;;5018647;28;1421;-50
2021/08/01 06:37:44;;;;;;;;;;;;;;;;;;5025955;28;1366;-52
2021/08/01 06:40:12;;;;;;;;;;;;;;;;;;5021513;28;1609;-49
2021/08/01 06:42:37;;;;;;;;;;;;;;;;;;5021965;28;1581;-49
2021/08/01 06:45:03;;;;;;;;;;;;;;;;;;5020504;28;1986;-50
2021/08/01 06:47:28;;;;;;;;;;;;;;;;;;5023066;28;1446;-51
2021/08/01 06:49:53;;;;;;;;;;;;;;;;;;4956616;28;1106;-51
2021/08/01 06:52:18;;;;;;;;;;;;;;;;;;5019498;28;1514;-49
2021/08/01 06:54:43;;;;;;;;;;;;;;;;;;5046107;23;2349;-90
2021/08/01 06:57:09;;;;;;;;;;;;;;;;;;5023928;28;1560;-91
2021/08/01 06:59:34;;;;;;;;;;;;;;;;;;5022918;28;1294;-90
2021/08/01 07:01:59;;;;;;;;;;;;;;;;;;5023719;28;1205;-90
2021/08/01 07:04:24;;;;;;;;;;;;;;;;;;5027859;28;1910;-91
2021/08/01 07:06:50;;;;;;;;;;;;;;;;;;5009015;28;1520;-90
2021/08/01 07:09:15;;;;;;;;;;;;;;;;;;5021427;28;1399;-90
2021/08/01 07:11:40;;;;;;;;;;;;;;;;;;5023683;28;1636;-90
2021/08/01 07:14:05;;;;;;;;;;;;;;;;;;5021380;28;1142;-90
2021/08/01 07:16:30;;;;;;;;;;;;;;;;;;5023807;28;1243;-91
2021/08/01 07:18:55;;;;;;;;;;;;;;;;;;5022178;28;1597;-90
2021/08/01 07:21:21;;;;;;;;;;;;;;;;;;5010233;28;1387;-91
2021/08/01 07:23:46;;;;;;;;;;;;;;;;;;5022994;28;1906;-90
2021/08/01 07:26:11;;;;;;;;;;;;;;;;;;5021908;28;1549;-90
2021/08/01 07:28:38;;;;;;;;;;;;;;;;;;5012151;28;1200;-90
2021/08/01 07:31:03;;;;;;;;;;;;;;;;;;5014596;28;1237;-91
2021/08/01 07:33:28;;;;;;;;;;;;;;;;;;5028285;28;1633;-91
2021/08/01 07:35:53;;;;;;;;;;;;;;;;;;5031010;28;1147;-90
2021/08/01 07:38:18;;;;;;;;;;;;;;;;;;5025542;28;1235;-91
2021/08/01 07:40:44;;;;;;;;;;;;;;;;;;5024624;28;1734;-91
2021/08/01 07:43:09;;;;;;;;;;;;;;;;;;5029362;28;1134;-90
2021/08/01 07:45:34;;;;;;;;;;;;;;;;;;5013724;28;1910;-91
2021/08/01 07:48:00;;;;;;;;;;;;;;;;;;5025567;28;1321;-91
2021/08/01 07:50:25;;;;;;;;;;;;;;;;;;5024888;28;1617;-90
2021/08/01 07:52:50;;;;;;;;;;;;;;;;;;5026827;28;1532;-91
2021/08/01 07:55:15;;;;;;;;;;;;;;;;;;5028465;28;1282;-90
2021/08/01 07:57:41;;;;;;;;;;;;;;;;;;5011726;28;1675;-90
2021/08/01 08:00:06;;;;;;;;;;;;;;;;;;5024598;28;1365;-90
2021/08/01 08:02:31;;;;;;;;;;;;;;;;;;5034911;28;1196;-91
2021/08/01 08:04:56;;;;;;;;;;;;;;;;;;5025954;28;1973;-91
2021/08/01 08:07:22;;;;;;;;;;;;;;;;;;5026355;28;1591;-90
2021/08/01 08:09:47;;;;;;;;;;;;;;;;;;5024567;28;1221;-91
2021/08/01 08:12:12;;;;;;;;;;;;;;;;;;5026123;28;1665;-90
2021/08/01 08:14:37;;;;;;;;;;;;;;;;;;5026036;28;1177;-91
2021/08/01 08:17:03;;;;;;;;;;;;;;;;;;5025720;28;1454;-91
2021/08/01 08:19:28;;;;;;;;;;;;;;;;;;5024847;28;1585;-91
2021/08/01 08:21:53;;;;;;;;;;;;;;;;;;5025545;28;1672;-91
2021/08/01 08:24:19;;;;;;;;;;;;;;;;;;5028128;28;1906;-91
2021/08/01 08:26:44;;;;;;;;;;;;;;;;;;5024249;28;1613;-90
2021/08/01 08:29:09;;;;;;;;;;;;;;;;;;5026443;28;1319;-91
2021/08/01 08:31:34;;;;;;;;;;;;;;;;;;5025266;28;1360;-90
2021/08/01 08:33:59;;;;;;;;;;;;;;;;;;5022054;28;1589;-90
2021/08/01 08:36:25;;;;;;;;;;;;;;;;;;5027031;28;1363;-91
2021/08/01 08:38:50;;;;;;;;;;;;;;;;;;5023684;28;1363;-91
2021/08/01 08:41:16;;;;;;;;;;;;;;;;;;5026632;28;1580;-91
2021/08/01 08:43:41;;;;;;;;;;;;;;;;;;5024698;28;1902;-91
2021/08/01 08:46:08;;;;;;;;;;;;;;;;;;5023695;28;1391;-90
2021/08/01 08:48:33;;;;;;;;;;;;;;;;;;5026960;28;1266;-90
2021/08/01 08:50:58;;;;;;;;;;;;;;;;;;5025854;28;1550;-91
2021/08/01 08:53:24;;;;;;;;;;;;;;;;;;5022846;28;1106;-90
2021/08/01 08:55:50;;;;;;;;;;;;;;;;;;5024829;28;1577;-90
2021/08/01 08:58:17;;;;;;;;;;;;;;;;;;5026295;28;1276;-90
2021/08/01 09:00:42;;;;;;;;;;;;;;;;;;5010990;28;1554;-90
2021/08/01 09:03:08;;;;;;;;;;;;;;;;;;5014600;28;1185;-91
2021/08/01 09:05:33;;;;;;;;;;;;;;;;;;5022072;28;1964;-91
2021/08/01 09:07:58;;;;;;;;;;;;;;;;;;5024799;28;1786;-89
2021/08/01 09:10:23;;;;;;;;;;;;;;;;;;5010427;28;1578;-90
2021/08/01 09:12:50;;;;;;;;;;;;;;;;;;5023884;28;1045;-90
2021/08/01 09:15:15;;;;;;;;;;;;;;;;;;5027052;28;1263;-90
2021/08/01 09:17:41;;;;;;;;;;;;;;;;;;5024612;28;1355;-90
2021/08/01 09:20:13;;;;;;;;;;;;;;;;;;5031696;28;1531;-90
2021/08/01 09:22:38;;;;;;;;;;;;;;;;;;5023263;28;1217;-90
2021/08/01 09:25:14;;;;;;;;;;;;;;;;;;5025382;28;1909;-91
2021/08/01 09:27:39;;;;;;;;;;;;;;;;;;5023618;28;1673;-90
2021/08/01 09:30:04;;;;;;;;;;;;;;;;;;5023297;28;1458;-89
2021/08/01 09:32:30;;;;;;;;;;;;;;;;;;5023012;28;1313;-89
2021/08/01 09:34:56;;;;;;;;;;;;;;;;;;5011238;28;1311;-90
2021/08/01 09:37:30;;;;;;;;;;;;;;;;;;5026232;28;1513;-90
2021/08/01 09:40:07;;;;;;;;;;;;;;;;;;5025676;28;1524;-90
2021/08/01 09:42:43;;;;;;;;;;;;;;;;;;5026043;28;1605;-90
2021/08/01 09:45:18;;;;;;;;;;;;;;;;;;5025511;28;1979;-90
2021/08/01 09:47:44;;;;;;;;;;;;;;;;;;5013863;28;1271;-90
2021/08/01 09:50:09;;;;;;;;;;;;;;;;;;5011774;28;1470;-90
2021/08/01 09:52:34;;;;;;;;;;;;;;;;;;5023465;28;1546;-90
2021/08/01 09:55:00;;;;;;;;;;;;;;;;;;5012865;28;1213;-90
2021/08/01 09:57:25;;;;;;;;;;;;;;;;;;5010318;28;1638;-90
2021/08/01 10:00:10;;;;;;;;;;;;;;;;;;5013239;28;1486;-90
2021/08/01 10:02:36;;;;;;;;;;;;;;;;;;5023254;28;1843;-90
2021/08/01 10:05:12;;;;;;;;;;;;;;;;;;5024572;28;1914;-91
2021/08/01 10:07:40;;;;;;;;;;;;;;;;;;5026499;28;1283;-89
2021/08/01 10:10:05;;;;;;;;;;;;;;;;;;5016242;28;1161;-89
2021/08/01 10:12:30;;;;;;;;;;;;;;;;;;5010631;28;1622;-90
2021/08/01 10:14:55;;;;;;;;;;;;;;;;;;5012274;28;1598;-90
2021/08/01 10:17:22;;;;;;;;;;;;;;;;;;5020827;28;1455;-90
2021/08/01 10:19:47;;;;;;;;;;;;;;;;;;5027937;28;1645;-90
2021/08/01 10:22:13;;;;;;;;;;;;;;;;;;5021552;28;1166;-90
2021/08/01 10:24:38;;;;;;;;;;;;;;;;;;5022210;28;2022;-91
2021/08/01 10:27:04;;;;;;;;;;;;;;;;;;5012289;28;1654;-90
2021/08/01 10:29:29;;;;;;;;;;;;;;;;;;5012513;28;1197;-89
2021/08/01 10:32:13;;;;;;;;;;;;;;;;;;5021367;28;1209;-91
2021/08/01 10:34:41;;;;;;;;;;;;;;;;;;5037246;28;1454;-89
2021/08/01 10:37:11;;;;;;;;;;;;;;;;;;5050265;28;1298;-89
2021/08/01 10:39:36;;;;;;;;;;;;;;;;;;5026170;28;1397;-89
2021/08/01 10:42:06;;;;;;;;;;;;;;;;;;5012633;28;1729;-90
2021/08/01 10:44:32;;;;;;;;;;;;;;;;;;5023589;28;1969;-90
2021/08/01 10:46:57;;;;;;;;;;;;;;;;;;5025386;28;1250;-90
2021/08/01 10:49:22;;;;;;;;;;;;;;;;;;5022943;28;1498;-90
2021/08/01 10:51:47;;;;;;;;;;;;;;;;;;5011421;28;1555;-90
2021/08/01 10:54:19;;;;;;;;;;;;;;;;;;5011510;28;1308;-90
2021/08/01 10:56:44;;;;;;;;;;;;;;;;;;5012872;28;1686;-90
2021/08/01 10:59:18;;;;;;;;;;;;;;;;;;5011121;28;1387;-90
2021/08/01 11:02:02;;;;;;;;;;;;;;;;;;5012675;28;1373;-89
2021/08/01 11:04:28;;;;;;;;;;;;;;;;;;5023783;28;1969;-89
2021/08/01 11:06:53;;;;;;;;;;;;;;;;;;5028678;28;1315;-90
2021/08/01 11:09:18;;;;;;;;;;;;;;;;;;5015560;28;1370;-90
2021/08/01 11:11:45;;;;;;;;;;;;;;;;;;5029484;28;1659;-90
2021/08/01 11:14:30;;;;;;;;;;;;;;;;;;5025161;28;1193;-90
2021/08/01 11:16:55;;;;;;;;;;;;;;;;;;5028810;28;2106;-90
2021/08/01 11:19:33;;;;;;;;;;;;;;;;;;5033436;28;1617;-90
2021/08/01 11:21:58;;;;;;;;;;;;;;;;;;5025797;28;1142;-90
2021/08/01 11:24:23;;;;;;;;;;;;;;;;;;5027702;28;1919;-90
2021/08/01 11:27:04;;;;;;;;;;;;;;;;;;5025585;28;1615;-90
2021/08/01 11:29:29;;;;;;;;;;;;;;;;;;5028822;28;1469;-90
2021/08/01 11:32:07;;;;;;;;;;;;;;;;;;5028098;28;1049;-90
2021/08/01 11:34:32;;;;;;;;;;;;;;;;;;5027098;28;1656;-90
2021/08/01 11:37:17;;;;;;;;;;;;;;;;;;5015973;28;1308;-90
2021/08/01 11:39:53;;;;;;;;;;;;;;;;;;5028297;28;1351;-90
2021/08/01 11:42:25;;;;;;;;;;;;;;;;;;5013761;28;1649;-90
2021/08/01 11:45:00;;;;;;;;;;;;;;;;;;5012642;28;1902;-90
2021/08/01 11:47:26;;;;;;;;;;;;;;;;;;5026314;28;1332;-90
2021/08/01 11:49:51;;;;;;;;;;;;;;;;;;5026737;28;1663;-89
2021/08/01 11:52:20;;;;;;;;;;;;;;;;;;5027378;28;1530;-89
2021/08/01 11:54:45;;;;;;;;;;;;;;;;;;5025594;28;1271;-90
2021/08/01 11:57:11;;;;;;;;;;;;;;;;;;5013970;28;1570;-90
2021/08/01 11:59:37;;;;;;;;;;;;;;;;;;5029381;28;1248;-91
2021/08/01 12:02:06;;;;;;;;;;;;;;;;;;5015450;28;1403;-91
2021/08/01 12:04:31;;;;;;;;;;;;;;;;;;5027212;28;1910;-90
2021/08/01 12:06:57;;;;;;;;;;;;;;;;;;5029865;28;1521;-91
2021/08/01 12:09:22;;;;;;;;;;;;;;;;;;5024466;28;1268;-90
2021/08/01 12:11:49;;;;;;;;;;;;;;;;;;5022311;28;1649;-90
2021/08/01 12:14:14;;;;;;;;;;;;;;;;;;5028212;28;1161;-90
2021/08/01 12:16:51;;;;;;;;;;;;;;;;;;5024820;28;1271;-90
2021/08/01 12:19:17;;;;;;;;;;;;;;;;;;5025599;28;1478;-90
2021/08/01 12:21:43;;;;;;;;;;;;;;;;;;5032177;28;1064;-90
2021/08/01 12:24:27;;;;;;;;;;;;;;;;;;5014144;28;1977;-91
2021/08/01 12:26:52;;;;;;;;;;;;;;;;;;5014870;28;1587;-92
2021/08/01 12:29:31;;;;;;;;;;;;;;;;;;5013946;28;1385;-90
2021/08/01 12:31:57;;;;;;;;;;;;;;;;;;5012734;28;1059;-91
2021/08/01 12:34:22;;;;;;;;;;;;;;;;;;5024968;28;1558;-92
2021/08/01 12:36:48;;;;;;;;;;;;;;;;;;5023275;28;1275;-91
2021/08/01 12:39:16;;;;;;;;;;;;;;;;;;5034799;23;3677;-51
2021/08/01 12:41:41;;;;;;;;;;;;;;;;;;5022419;28;1520;-50
2021/08/01 12:44:13;;;;;;;;;;;;;;;;;;5021898;28;1923;-50
2021/08/01 12:46:38;;;;;;;;;;;;;;;;;;5041578;28;1121;-49
2021/08/01 12:49:03;;;;;;;;;;;;;;;;;;5021461;28;1674;-50
2021/08/01 12:51:28;;;;;;;;;;;;;;;;;;5051064;22;1888;-52
2021/08/01 12:53:58;;;;;;;;;;;;;;;;;;5018157;28;1533;-50
2021/08/01 12:56:23;;;;;;;;;;;;;;;;;;5016506;28;1755;-51
2021/08/01 12:58:48;;;;;;;;;;;;;;;;;;5022033;28;1399;-50
2021/08/01 13:01:13;;;;;;;;;;;;;;;;;;5023709;28;1503;-50
2021/08/01 13:03:43;;;;;;;;;;;;;;;;;;5028268;28;1914;-52
2021/08/01 13:06:09;;;;;;;;;;;;;;;;;;5021876;28;1555;-52
2021/08/01 13:08:34;;;;;;;;;;;;;;;;;;5030244;28;1153;-52
2021/08/01 13:10:59;;;;;;;;;;;;;;;;;;5023983;28;1568;-51
2021/08/01 13:13:24;;;;;;;;;;;;;;;;;;5029610;28;1145;-52
2021/08/01 13:15:52;;;;;;;;;;;;;;;;;;5030725;28;1181;-52
2021/08/01 13:18:35;;;;;;;;;;;;;;;;;;5022630;28;1536;-52
2021/08/01 13:21:19;;;;;;;;;;;;;;;;;;5029808;28;1312;-52
2021/08/01 13:23:45;;;;;;;;;;;;;;;;;;5026418;28;1973;-51
2021/08/01 13:26:15;;;;;;;;;;;;;;;;;;5023465;28;1574;-52
2021/08/01 13:28:46;;;;;;;;;;;;;;;;;;5026196;28;1027;-52
2021/08/01 13:31:12;;;;;;;;;;;;;;;;;;5030409;28;1250;-52
2021/08/01 13:33:37;;;;;;;;;;;;;;;;;;5026281;28;1213;-51
2021/08/01 13:36:02;;;;;;;;;;;;;;;;;;5006233;28;1597;-50
2021/08/01 13:38:28;;;;;;;;;;;;;;;;;;5022701;28;1442;-52
2021/08/01 13:40:53;;;;;;;;;;;;;;;;;;5006104;28;1561;-52
2021/08/01 13:43:18;;;;;;;;;;;;;;;;;;5029388;28;1098;-52
2021/08/01 13:45:44;;;;;;;;;;;;;;;;;;5027537;28;1970;-51
2021/08/01 13:48:09;;;;;;;;;;;;;;;;;;5026289;28;1476;-52
2021/08/01 13:50:34;;;;;;;;;;;;;;;;;;5025785;28;1658;-51
2021/08/01 13:52:59;;;;;;;;;;;;;;;;;;5026160;28;1548;-52
2021/08/01 13:55:24;;;;;;;;;;;;;;;;;;5027426;28;1627;-52
2021/08/01 13:57:59;;;;;;;;;;;;;;;;;;5026337;28;1279;-51
2021/08/01 14:00:24;;;;;;;;;;;;;;;;;;5029197;28;1259;-52
2021/08/01 14:02:50;;;;;;;;;;;;;;;;;;5029894;28;1113;-52
2021/08/01 14:05:15;;;;;;;;;;;;;;;;;;5023831;28;1973;-52
2021/08/01 14:07:40;;;;;;;;;;;;;;;;;;5019183;28;1432;-52
2021/08/01 14:10:06;;;;;;;;;;;;;;;;;;5026690;28;1480;-52
2021/08/01 14:12:31;;;;;;;;;;;;;;;;;;5025588;28;1571;-52
2021/08/01 14:14:57;;;;;;;;;;;;;;;;;;5025715;28;1418;-52
2021/08/01 14:17:22;;;;;;;;;;;;;;;;;;5027309;28;1128;-52
2021/08/01 14:19:47;;;;;;;;;;;;;;;;;;5024022;28;1578;-52
2021/08/01 14:22:12;;;;;;;;;;;;;;;;;;5029012;28;1341;-52
2021/08/01 14:24:38;;;;;;;;;;;;;;;;;;5029182;28;1922;-51
2021/08/01 14:27:03;;;;;;;;;;;;;;;;;;5024556;28;1704;-52
2021/08/01 14:29:32;;;;;;;;;;;;;;;;;;5023104;28;1466;-52
2021/08/01 14:31:57;;;;;;;;;;;;;;;;;;5028073;28;1326;-52
2021/08/01 14:34:23;;;;;;;;;;;;;;;;;;5009729;28;1304;-52
2021/08/01 14:36:48;;;;;;;;;;;;;;;;;;5022834;28;1610;-52
2021/08/01 14:39:16;;;;;;;;;;;;;;;;;;5026535;28;1327;-52
2021/08/01 14:41:41;;;;;;;;;;;;;;;;;;5025186;28;1610;-52
2021/08/01 14:44:06;;;;;;;;;;;;;;;;;;5014879;28;2021;-52
2021/08/01 14:46:32;;;;;;;;;;;;;;;;;;5029968;28;1861;-52
2021/08/01 14:49:03;;;;;;;;;;;;;;;;;;5027076;28;1563;-51
2021/08/01 14:54:12;;;;;;;;;;;;;;;;;;5032805;28;1124;-52
2021/08/01 14:56:37;;;;;;;;;;;;;;;;;;5027479;28;1794;-52
2021/08/01 14:59:03;;;;;;;;;;;;;;;;;;5014513;28;1118;-51
2021/08/01 15:01:32;;;;;;;;;;;;;;;;;;5028803;28;1399;-52
2021/08/01 15:04:15;;;;;;;;;;;;;;;;;;5015012;28;1899;-52
2021/08/01 15:06:41;;;;;;;;;;;;;;;;;;5026143;28;1563;-52
2021/08/01 15:09:13;;;;;;;;;;;;;;;;;;5031188;28;1300;-51
2021/08/01 15:11:41;;;;;;;;;;;;;;;;;;5003403;28;1585;-52
2021/08/01 15:14:10;;;;;;;;;;;;;;;;;;5030244;28;1307;-51
2021/08/01 15:16:35;;;;;;;;;;;;;;;;;;5026358;28;984;-51
2021/08/01 15:19:10;;;;;;;;;;;;;;;;;;5026101;28;1567;-52
2021/08/01 15:21:56;;;;;;;;;;;;;;;;;;5029777;28;1365;-49
2021/08/01 15:24:21;;;;;;;;;;;;;;;;;;5030859;28;1911;-52
2021/08/01 15:26:46;;;;;;;;;;;;;;;;;;5029754;28;1520;-52
2021/08/01 15:29:12;;;;;;;;;;;;;;;;;;5032521;28;1185;-52
2021/08/01 15:31:37;;;;;;;;;;;;;;;;;;5023615;28;1574;-51
2021/08/01 15:34:02;;;;;;;;;;;;;;;;;;5031278;28;1169;-51
2021/08/01 15:36:27;;;;;;;;;;;;;;;;;;5006644;28;1728;-52
2021/08/01 15:38:52;;;;;;;;;;;;;;;;;;5008449;28;1301;-51
2021/08/01 15:41:18;;;;;;;;;;;;;;;;;;5027009;28;1586;-52
2021/08/01 15:43:43;;;;;;;;;;;;;;;;;;5030802;28;1963;-52
2021/08/01 15:46:09;;;;;;;;;;;;;;;;;;5032495;28;1174;-51
2021/08/01 15:48:35;;;;;;;;;;;;;;;;;;5027537;28;1378;-52
2021/08/01 15:51:00;;;;;;;;;;;;;;;;;;5026787;28;1614;-52
2021/08/01 15:53:33;;;;;;;;;;;;;;;;;;5015055;28;1185;-52
2021/08/01 15:55:59;;;;;;;;;;;;;;;;;;5026475;28;1576;-52
2021/08/01 15:58:24;;;;;;;;;;;;;;;;;;5004141;28;1648;-52
2021/08/01 16:00:51;;;;;;;;;;;;;;;;;;5028696;28;1370;-52
2021/08/01 16:03:25;;;;;;;;;;;;;;;;;;5031105;28;1117;-52
2021/08/01 16:05:56;;;;;;;;;;;;;;;;;;5030849;28;1910;-51
2021/08/01 16:08:30;;;;;;;;;;;;;;;;;;5011791;28;1675;-52
2021/08/01 16:11:00;;;;;;;;;;;;;;;;;;5024664;28;1590;-51
2021/08/01 16:13:26;;;;;;;;;;;;;;;;;;5014194;28;1138;-52
2021/08/01 16:15:54;;;;;;;;;;;;;;;;;;5028943;28;1385;-52
2021/08/01 16:18:19;;;;;;;;;;;;;;;;;;5032135;28;1231;-52
2021/08/01 16:20:47;;;;;;;;;;;;;;;;;;5007751;28;1698;-50
2021/08/01 16:23:14;;;;;;;;;;;;;;;;;;5029467;28;1224;-52
2021/08/01 16:25:39;;;;;;;;;;;;;;;;;;5024126;28;1902;-52
2021/08/01 16:28:04;;;;;;;;;;;;;;;;;;5031765;28;1176;-52
2021/08/01 16:30:29;;;;;;;;;;;;;;;;;;5011789;28;1424;-51
2021/08/01 16:32:55;;;;;;;;;;;;;;;;;;5028518;28;1287;-52
2021/08/01 16:35:20;;;;;;;;;;;;;;;;;;5010399;28;1619;-52
2021/08/01 16:37:46;;;;;;;;;;;;;;;;;;5028209;28;1571;-52
2021/08/01 16:40:12;;;;;;;;;;;;;;;;;;5028613;28;1342;-52
2021/08/01 16:42:43;;;;;;;;;;;;;;;;;;5022882;28;1551;-52
2021/08/01 16:45:10;;;;;;;;;;;;;;;;;;5021608;28;1914;-52
2021/08/01 16:47:59;;;;;;;;;;;;;;;;;;5028599;28;1441;-52
2021/08/01 16:50:44;;;;;;;;;;;;;;;;;;5007294;28;1447;-52
2021/08/01 16:53:10;;;;;;;;;;;;;;;;;;5024030;28;1605;-52
2021/08/01 16:55:40;;;;;;;;;;;;;;;;;;5021426;28;1579;-52
2021/08/01 16:58:13;;;;;;;;;;;;;;;;;;5016768;28;1531;-51
2021/08/01 17:00:43;;;;;;;;;;;;;;;;;;5023175;28;1377;-52
2021/08/01 17:03:15;;;;;;;;;;;;;;;;;;5018467;28;1414;-51